Time;durP1;ratioP1;P1;durP2;ratioP2;P2;SDS_P1;SDS_P2;PMS_P1;PMS_P2;Temp;Humidity;BMP_temperature;BMP_pressure;BME280_temperature;BME280_humidity;BME280_pressure;Samples;Min_cycle;Max_cycle;Signal;HPM_P1;HPM_P2
2021/05/26 00:01:45;;;;;;;0.98;0.85;;;;;;;10.26;100.00;100939.58;1731101;81;21110;-45
2021/05/26 00:04:13;;;;;;;0.68;0.68;;;;;;;10.22;100.00;100935.72;1731097;82;21059;-45
2021/05/26 00:06:40;;;;;;;1.17;0.90;;;;;;;10.19;100.00;100940.36;1731347;82;21043;-41
2021/05/26 00:09:08;;;;;;;1.42;0.75;;;;;;;10.16;100.00;100932.67;1730984;81;21061;-45
2021/05/26 00:11:34;;;;;;;1.70;0.78;;;;;;;10.14;100.00;100930.77;1731271;82;21047;-45
2021/05/26 00:14:01;;;;;;;1.45;0.78;;;;;;;10.13;100.00;100934.58;1731206;82;21038;-41
2021/05/26 00:16:29;;;;;;;0.75;0.75;;;;;;;10.12;100.00;100938.41;1707640;82;21054;-42
2021/05/26 00:18:56;;;;;;;1.10;1.02;;;;;;;10.10;100.00;100941.39;1731118;82;21022;-41
2021/05/26 00:21:24;;;;;;;3.12;1.00;;;;;;;10.07;100.00;100934.28;1730866;82;21756;-41
2021/05/26 00:23:51;;;;;;;0.93;0.93;;;;;;;10.05;100.00;100941.36;1731309;82;21038;-46
2021/05/26 00:26:17;;;;;;;1.20;1.10;;;;;;;10.05;100.00;100944.64;1732332;81;21624;-45
2021/05/26 00:28:46;;;;;;;2.30;2.12;;;;;;;10.03;100.00;100945.44;1731003;81;21087;-43
2021/05/26 00:31:12;;;;;;;3.05;1.77;;;;;;;10.04;100.00;100947.07;1730475;82;21026;-46
2021/05/26 00:33:39;;;;;;;2.75;1.30;;;;;;;10.04;100.00;100949.80;1706214;82;21080;-41
2021/05/26 00:36:06;;;;;;;1.98;1.82;;;;;;;10.01;100.00;100948.42;1731194;81;21078;-46
2021/05/26 00:38:32;;;;;;;3.40;1.67;;;;;;;10.00;100.00;100948.70;1731290;82;21531;-45
2021/05/26 00:40:59;;;;;;;2.30;1.15;;;;;;;9.98;100.00;100951.69;1732148;81;21030;-45
2021/05/26 00:43:25;;;;;;;0.60;0.60;;;;;;;9.96;100.00;100950.30;1731216;82;21055;-40
2021/05/26 00:45:53;;;;;;;4.90;2.85;;;;;;;9.95;100.00;100950.04;1732335;81;21098;-41
2021/05/26 00:48:19;;;;;;;2.20;1.85;;;;;;;9.95;100.00;100956.86;1702849;82;21039;-41
2021/05/26 00:50:46;;;;;;;1.50;1.30;;;;;;;9.94;100.00;100963.39;1714817;82;21510;-45
2021/05/26 00:53:14;;;;;;;0.85;0.85;;;;;;;9.92;100.00;100957.40;1708172;84;21038;-45
2021/05/26 00:55:42;;;;;;;2.65;1.65;;;;;;;9.92;100.00;100959.58;1672194;84;21095;-42
2021/05/26 00:58:09;;;;;;;1.60;1.17;;;;;;;9.92;100.00;100960.13;1698352;84;21086;-45
2021/05/26 01:00:38;;;;;;;1.12;0.93;;;;;;;9.90;100.00;100963.92;1702466;84;21047;-45
2021/05/26 01:03:10;;;;;;;2.65;2.33;;;;;;;9.88;100.00;100957.90;1702106;84;21096;-45
2021/05/26 01:05:38;;;;;;;2.33;1.42;;;;;;;9.87;100.00;100957.62;1696088;84;21099;-45
2021/05/26 01:08:05;;;;;;;0.88;0.88;;;;;;;9.84;100.00;100956.80;1689900;84;21019;-45
2021/05/26 01:10:33;;;;;;;0.95;0.93;;;;;;;9.83;100.00;100962.50;1702311;82;21051;-41
2021/05/26 01:13:11;;;;;;;0.85;0.85;;;;;;;9.79;100.00;100967.67;1702024;84;21027;-41
2021/05/26 01:15:39;;;;;;;1.20;0.80;;;;;;;9.79;100.00;100965.47;1702110;82;21060;-41
2021/05/26 01:18:32;;;;;;;0.95;0.95;;;;;;;9.75;100.00;100967.09;1701421;84;21095;-45
2021/05/26 01:21:06;;;;;;;0.45;0.45;;;;;;;9.71;100.00;100970.05;1636760;87;21081;-40
2021/05/26 01:23:33;;;;;;;0.33;0.33;;;;;;;9.68;100.00;100978.22;1688785;82;21099;-45
2021/05/26 01:26:04;;;;;;;0.33;0.33;;;;;;;9.67;100.00;100977.95;1700617;84;21040;-40
2021/05/26 01:28:31;;;;;;;2.60;1.00;;;;;;;9.65;100.00;100975.47;1672169;84;21050;-44
2021/05/26 01:30:58;;;;;;;0.85;0.82;;;;;;;9.65;100.00;100973.29;1701790;82;21015;-40
2021/05/26 01:33:27;;;;;;;0.72;0.72;;;;;;;9.63;100.00;100974.09;1689492;84;21464;-41
2021/05/26 01:35:54;;;;;;;1.05;0.93;;;;;;;9.60;100.00;100973.25;1672437;84;21604;-45
2021/05/26 01:38:23;;;;;;;1.70;1.40;;;;;;;9.55;100.00;100974.58;1670730;84;21584;-45
2021/05/26 01:40:49;;;;;;;1.12;0.82;;;;;;;9.52;100.00;100973.70;1702329;84;21090;-45
2021/05/26 01:43:17;;;;;;;0.60;0.47;;;;;;;9.50;100.00;100969.89;1689782;84;21931;-41
2021/05/26 01:45:44;;;;;;;2.22;1.25;;;;;;;9.48;100.00;100971.50;1702113;82;21087;-45
2021/05/26 01:48:12;;;;;;;4.30;1.37;;;;;;;9.48;100.00;100977.50;1672406;84;21083;-45
2021/05/26 01:50:38;;;;;;;0.78;0.78;;;;;;;9.47;100.00;100974.52;1702195;82;21612;-45
2021/05/26 01:53:07;;;;;;;1.20;1.07;;;;;;;9.47;100.00;100969.88;1680049;84;21133;-41
2021/05/26 01:55:36;;;;;;;5.03;1.42;;;;;;;9.47;100.00;100968.51;1702308;84;21584;-41
2021/05/26 01:58:04;;;;;;;1.95;1.37;;;;;;;9.46;100.00;100968.75;1672204;84;21004;-41
2021/05/26 02:00:44;;;;;;;1.05;0.98;;;;;;;9.45;100.00;100969.30;1691039;84;21123;-41
2021/05/26 02:03:12;;;;;;;1.92;0.90;;;;;;;9.44;100.00;100970.36;1674188;84;21107;-41
2021/05/26 02:05:38;;;;;;;0.62;0.62;;;;;;;9.44;100.00;100967.64;1701696;84;21054;-41
2021/05/26 02:08:05;;;;;;;0.85;0.80;;;;;;;9.44;100.00;100974.45;1672589;84;21114;-41
2021/05/26 02:13:18;;;;;;;1.02;0.82;;;;;;;9.45;100.00;100967.94;1677600;84;21126;-43
2021/05/26 02:15:46;;;;;;;1.27;1.12;;;;;;;9.46;100.00;100970.12;1701311;84;21039;-45
2021/05/26 02:18:13;;;;;;;0.53;0.50;;;;;;;9.45;100.00;100966.58;1702350;84;21699;-40
2021/05/26 02:20:42;;;;;;;0.37;0.37;;;;;;;9.46;100.00;100972.84;1702238;82;21990;-45
2021/05/26 02:23:11;;;;;;;1.00;0.88;;;;;;;9.47;100.00;100972.59;1702278;84;21046;-45
2021/05/26 02:25:39;;;;;;;0.95;0.95;;;;;;;9.53;100.00;100971.28;1702226;82;21078;-40
2021/05/26 02:28:05;;;;;;;2.33;1.47;;;;;;;9.56;100.00;100969.39;1711355;82;21015;-42
2021/05/26 02:30:32;;;;;;;4.30;1.05;;;;;;;9.59;100.00;100975.13;1701782;82;21063;-45
2021/05/26 02:32:58;;;;;;;1.85;1.25;;;;;;;9.63;100.00;100973.54;1701075;82;21628;-42
2021/05/26 02:35:25;;;;;;;0.68;0.68;;;;;;;9.69;100.00;100976.61;1731097;82;21039;-46
2021/05/26 02:37:52;;;;;;;0.37;0.37;;;;;;;9.76;100.00;100972.82;1718894;82;21444;-40
2021/05/26 02:40:21;;;;;;;1.57;1.27;;;;;;;9.84;100.00;100975.05;1725480;81;21586;-46
2021/05/26 02:42:47;;;;;;;1.20;1.15;;;;;;;9.90;100.00;100983.03;1702299;82;21548;-41
2021/05/26 02:45:17;;;;;;;0.70;0.70;;;;;;;9.98;100.00;100974.08;1730285;82;21062;-41
2021/05/26 02:47:46;;;;;;;1.52;1.42;;;;;;;10.07;100.00;100975.23;1711095;83;21021;-41
2021/05/26 02:50:17;;;;;;;1.35;1.30;;;;;;;10.18;100.00;100978.84;1722050;82;21101;-40
2021/05/26 02:52:42;;;;;;;2.37;1.20;;;;;;;10.27;100.00;100970.44;1738835;82;20996;-41
2021/05/26 02:55:11;;;;;;;2.35;1.45;;;;;;;10.39;100.00;100971.64;1715817;81;21048;-41
2021/05/26 02:57:39;;;;;;;1.22;1.12;;;;;;;10.49;100.00;100975.78;1715295;82;21069;-45
2021/05/26 03:00:26;;;;;;;1.07;1.07;;;;;;;10.60;100.00;100979.37;1666292;86;21240;-46
2021/05/26 03:03:04;;;;;;;2.00;1.57;;;;;;;10.72;100.00;100978.05;1664323;86;21055;-45
2021/05/26 03:05:32;;;;;;;3.47;1.55;;;;;;;10.86;100.00;100975.66;1697553;82;21028;-44
2021/05/26 03:07:58;;;;;;;1.77;1.15;;;;;;;10.98;100.00;100972.69;1738525;82;21128;-46
2021/05/26 03:10:28;;;;;;;1.85;1.75;;;;;;;11.10;100.00;100972.42;1738741;82;21169;-42
2021/05/26 03:12:58;;;;;;;0.70;0.55;;;;;;;11.23;100.00;100967.00;1732244;82;21577;-43
2021/05/26 03:15:24;;;;;;;2.45;1.98;;;;;;;11.35;100.00;100968.91;1708008;82;21060;-42
2021/05/26 03:17:52;;;;;;;1.50;0.85;;;;;;;11.50;100.00;100970.31;1732834;82;21045;-41
2021/05/26 03:20:19;;;;;;;1.32;1.15;;;;;;;11.64;100.00;100970.57;1737862;81;21068;-45
2021/05/26 03:22:45;;;;;;;1.62;0.90;;;;;;;11.78;100.00;100973.04;1724083;82;21054;-42
2021/05/26 03:25:15;;;;;;;2.20;1.45;;;;;;;11.92;100.00;100965.13;1705723;82;21030;-43
2021/05/26 03:27:42;;;;;;;1.32;1.20;;;;;;;12.08;100.00;100974.13;1689213;84;21081;-41
2021/05/26 03:30:15;;;;;;;1.95;0.78;;;;;;;12.23;100.00;100971.91;1713330;82;21597;-46
2021/05/26 03:32:42;;;;;;;2.83;1.77;;;;;;;12.39;100.00;100974.89;1735662;82;20988;-41
2021/05/26 03:35:10;;;;;;;1.15;1.15;;;;;;;12.56;100.00;100975.09;1703189;83;21067;-46
2021/05/26 03:37:36;;;;;;;1.30;1.20;;;;;;;12.70;100.00;100976.14;1723316;83;21035;-46
2021/05/26 03:40:10;;;;;;;1.12;0.85;;;;;;;12.82;100.00;100975.27;1724205;81;21083;-42
2021/05/26 03:42:38;;;;;;;1.05;0.95;;;;;;;12.95;100.00;100977.94;1738929;81;21036;-42
2021/05/26 03:45:07;;;;;;;1.00;1.00;;;;;;;13.15;100.00;100978.93;1729572;82;21051;-46
2021/05/26 03:47:35;;;;;;;3.02;1.77;;;;;;;13.31;100.00;100977.21;1717705;82;21190;-42
2021/05/26 03:50:07;;;;;;;1.22;0.90;;;;;;;13.50;100.00;100977.89;1694410;83;20991;-46
2021/05/26 03:52:34;;;;;;;0.87;0.87;;;;;;;13.66;100.00;100981.36;1678025;85;21763;-46
2021/05/26 03:55:01;;;;;;;1.45;1.35;;;;;;;13.84;100.00;100983.95;1694367;84;21083;-42
2021/05/26 03:57:27;;;;;;;1.40;1.22;;;;;;;14.01;100.00;100984.34;1707557;82;21415;-41
2021/05/26 03:59:54;;;;;;;0.70;0.70;;;;;;;14.20;100.00;100987.99;1700461;84;21039;-41
2021/05/26 04:02:21;;;;;;;1.30;1.20;;;;;;;14.39;100.00;100981.20;1707525;84;21044;-46
2021/05/26 04:04:48;;;;;;;1.32;1.10;;;;;;;14.59;100.00;100986.24;1707677;82;21062;-46
2021/05/26 04:07:18;;;;;;;1.52;0.62;;;;;;;14.78;100.00;100985.70;1707616;84;21465;-46
2021/05/26 04:09:47;;;;;;;1.10;1.10;;;;;;;15.00;100.00;100981.02;1706629;84;21054;-42
2021/05/26 04:12:13;;;;;;;0.85;0.75;;;;;;;15.20;100.00;100984.59;1707350;84;21079;-42
2021/05/26 04:14:40;;;;;;;5.47;1.17;;;;;;;15.39;100.00;100986.80;1707431;84;21063;-45
2021/05/26 04:17:09;;;;;;;1.42;1.32;;;;;;;15.58;100.00;100983.19;1675984;83;21556;-41
2021/05/26 04:20:02;;;;;;;0.68;0.68;;;;;;;15.77;100.00;100985.39;1706086;84;21651;-43
2021/05/26 04:22:25;;;;;;;0.40;0.40;;;;;;;15.98;100.00;100980.92;1714261;83;21042;-43
2021/05/26 04:24:54;;;;;;;1.02;0.62;;;;;;;16.18;100.00;100988.81;1707167;84;21110;-46
2021/05/26 04:27:20;;;;;;;1.02;0.93;;;;;;;16.37;100.00;100987.37;1678604;84;21126;-42
2021/05/26 04:29:47;;;;;;;1.50;0.42;;;;;;;16.59;100.00;100984.44;1702600;84;21615;-45
2021/05/26 04:32:13;;;;;;;1.67;0.68;;;;;;;16.79;100.00;100979.94;1735191;81;21026;-46
2021/05/26 04:34:40;;;;;;;0.70;0.62;;;;;;;16.98;100.00;100979.22;1740856;81;21098;-42
2021/05/26 04:37:07;;;;;;;0.62;0.37;;;;;;;17.18;100.00;100978.51;1723469;82;20988;-41
2021/05/26 04:39:35;;;;;;;1.45;1.22;;;;;;;17.36;100.00;100978.12;1734097;82;21122;-42
2021/05/26 04:42:02;;;;;;;0.50;0.50;;;;;;;17.53;100.00;100985.16;1737569;82;21100;-41
2021/05/26 04:44:28;;;;;;;0.98;0.53;;;;;;;17.70;99.85;100989.17;1739867;81;21031;-46
2021/05/26 04:46:55;;;;;;;2.30;1.22;;;;;;;17.86;98.79;100993.23;1735189;80;21060;-42
2021/05/26 04:49:23;;;;;;;1.05;0.50;;;;;;;18.03;97.51;100987.80;1697446;83;21068;-42
2021/05/26 04:51:50;;;;;;;1.32;1.22;;;;;;;18.19;96.13;100992.92;1711172;83;21078;-42
2021/05/26 04:54:17;;;;;;;2.30;0.85;;;;;;;18.35;95.16;101001.64;1686870;84;21075;-47
2021/05/26 04:56:44;;;;;;;1.27;1.05;;;;;;;18.52;94.59;101002.25;1667399;84;21046;-43
2021/05/26 04:59:12;;;;;;;1.85;0.72;;;;;;;18.70;93.32;101008.92;1718737;83;21087;-46
2021/05/26 05:01:38;;;;;;;0.80;0.75;;;;;;;18.88;91.56;101009.81;1690893;82;21556;-47
2021/05/26 05:04:05;;;;;;;0.72;0.72;;;;;;;19.06;90.32;101004.31;1709160;83;21113;-42
2021/05/26 05:06:32;;;;;;;1.02;1.00;;;;;;;19.23;88.57;101009.87;1717674;81;21463;-46
2021/05/26 05:08:58;;;;;;;0.82;0.68;;;;;;;19.39;87.20;101018.55;1710623;83;21054;-44
2021/05/26 05:11:24;;;;;;;1.22;1.00;;;;;;;19.54;85.76;101020.02;1692157;83;21035;-46
2021/05/26 05:13:51;;;;;;;1.00;0.75;;;;;;;19.69;84.07;101018.16;1680707;85;21609;-45
2021/05/26 05:16:17;;;;;;;1.37;1.00;;;;;;;19.87;83.00;101023.11;1710284;82;21015;-46
2021/05/26 05:18:46;;;;;;;0.98;0.88;;;;;;;20.07;80.06;101015.25;1709395;83;21634;-41
2021/05/26 05:21:13;;;;;;;0.75;0.65;;;;;;;20.28;78.10;101020.92;1708997;82;21094;-47
2021/05/26 05:23:39;;;;;;;0.70;0.55;;;;;;;20.46;76.82;101019.70;1709665;83;21065;-42
2021/05/26 05:26:06;;;;;;;0.55;0.55;;;;;;;20.66;74.59;101019.56;1723178;83;21046;-41
2021/05/26 05:28:32;;;;;;;0.78;0.70;;;;;;;20.84;72.10;101018.89;1710944;83;21106;-42
2021/05/26 05:30:59;;;;;;;1.07;0.80;;;;;;;21.03;70.84;101024.83;1723341;83;21050;-43
2021/05/26 05:33:26;;;;;;;0.42;0.42;;;;;;;21.16;70.87;101022.14;1711022;83;21074;-42
2021/05/26 05:35:53;;;;;;;0.70;0.70;;;;;;;21.27;69.03;101017.82;1723224;83;22463;-41
2021/05/26 05:38:20;;;;;;;0.65;0.65;;;;;;;21.38;67.94;101010.69;1711182;83;21018;-43
2021/05/26 05:40:47;;;;;;;0.80;0.45;;;;;;;21.51;67.15;101006.61;1723062;83;21587;-43
2021/05/26 05:43:15;;;;;;;0.93;0.85;;;;;;;21.66;66.62;101002.66;1694184;84;21667;-42
2021/05/26 05:45:42;;;;;;;0.50;0.50;;;;;;;21.81;66.44;100994.25;1711229;82;21054;-42
2021/05/26 05:48:09;;;;;;;0.90;0.90;;;;;;;21.97;64.39;101001.94;1698791;83;21034;-41
2021/05/26 05:50:36;;;;;;;1.57;1.07;;;;;;;22.11;63.99;100995.49;1694713;83;21073;-46
2021/05/26 05:53:04;;;;;;;0.50;0.50;;;;;;;22.25;64.06;100993.79;1723949;82;21030;-47
2021/05/26 05:55:31;;;;;;;1.25;0.70;;;;;;;22.35;63.26;100992.53;1670396;84;21106;-47
2021/05/26 05:58:01;;;;;;;0.30;0.30;;;;;;;22.41;62.79;100988.38;1723231;83;21043;-47
2021/05/26 06:00:26;;;;;;;0.57;0.53;;;;;;;22.53;61.37;100995.34;1693810;83;21216;-42
2021/05/26 06:02:52;;;;;;;0.90;0.60;;;;;;;22.70;61.67;100993.72;1698074;83;21077;-42
2021/05/26 06:05:19;;;;;;;0.50;0.50;;;;;;;22.81;61.25;100989.07;1694596;83;21058;-42
2021/05/26 06:07:45;;;;;;;0.53;0.53;;;;;;;22.90;60.20;100996.73;1723618;83;21067;-42
2021/05/26 06:10:13;;;;;;;0.40;0.37;;;;;;;23.05;58.63;100999.41;1694747;83;21596;-47
2021/05/26 06:12:41;;;;;;;0.78;0.68;;;;;;;23.24;58.17;101001.56;1723644;82;21070;-43
2021/05/26 06:15:08;;;;;;;1.05;0.85;;;;;;;23.38;56.92;100997.81;1688280;84;21617;-47
2021/05/26 06:17:37;;;;;;;0.55;0.55;;;;;;;23.46;57.30;101001.03;1695025;84;21020;-42
2021/05/26 06:20:04;;;;;;;0.78;0.78;;;;;;;23.57;57.62;100993.80;1732705;82;21083;-47
2021/05/26 06:22:32;;;;;;;1.07;0.57;;;;;;;23.69;56.54;100992.11;1738989;82;21068;-46
2021/05/26 06:24:59;;;;;;;0.80;0.70;;;;;;;23.79;56.93;100988.86;1738894;81;21040;-47
2021/05/26 06:27:25;;;;;;;2.10;0.98;;;;;;;23.87;57.33;100992.06;1739016;82;21615;-42
2021/05/26 06:29:51;;;;;;;0.88;0.85;;;;;;;23.91;56.46;100988.80;1738965;82;21068;-46
2021/05/26 06:32:18;;;;;;;0.75;0.72;;;;;;;23.93;56.46;100996.20;1738952;82;21003;-46
2021/05/26 06:34:45;;;;;;;0.80;0.70;;;;;;;24.04;56.50;100990.34;1739020;82;21063;-47
2021/05/26 06:39:40;;;;;;;0.93;0.90;;;;;;;24.39;56.38;100979.87;1887416;76;22666;-46
2021/05/26 06:42:06;;;;;;;0.65;0.53;;;;;;;24.46;56.75;100994.05;1843878;77;21015;-43
2021/05/26 06:44:33;;;;;;;0.82;0.75;;;;;;;24.55;54.40;101007.02;1836576;77;21580;-42
2021/05/26 06:47:01;;;;;;;1.12;0.50;;;;;;;24.57;54.55;101000.48;1839918;77;21051;-42
2021/05/26 06:49:27;;;;;;;0.88;0.70;;;;;;;24.66;54.20;101002.51;1820617;78;20991;-41
2021/05/26 06:51:54;;;;;;;0.85;0.72;;;;;;;24.78;53.88;100995.42;1756637;80;21036;-47
2021/05/26 06:54:21;;;;;;;1.95;0.90;;;;;;;24.93;54.06;100999.95;1760065;80;22024;-46
2021/05/26 06:56:48;;;;;;;0.55;0.55;;;;;;;25.10;54.57;101003.74;1753517;81;21030;-46
2021/05/26 06:59:14;;;;;;;0.68;0.60;;;;;;;25.25;52.94;101000.11;1784710;80;21044;-42
2021/05/26 07:01:41;;;;;;;0.88;0.60;;;;;;;25.31;51.41;100990.24;1784729;80;21019;-41
2021/05/26 07:04:07;;;;;;;2.40;1.22;;;;;;;25.37;51.79;100995.54;1784550;80;21055;-43
2021/05/26 07:06:34;;;;;;;0.70;0.70;;;;;;;25.37;52.06;100982.39;1784800;80;21095;-41
2021/05/26 07:09:00;;;;;;;0.70;0.70;;;;;;;25.45;51.65;100980.55;1784817;80;21040;-46
2021/05/26 07:11:28;;;;;;;0.53;0.53;;;;;;;25.58;51.35;100986.80;1784614;80;21044;-41
2021/05/26 07:13:55;;;;;;;1.52;1.05;;;;;;;25.53;51.09;100983.70;1784816;80;21475;-46
2021/05/26 07:16:21;;;;;;;0.70;0.70;;;;;;;25.42;51.40;100983.49;1784802;80;21373;-46
2021/05/26 07:18:49;;;;;;;2.35;1.27;;;;;;;25.44;50.99;100988.70;1784726;80;21031;-46
2021/05/26 07:21:16;;;;;;;0.78;0.68;;;;;;;25.45;50.69;100987.54;1784696;80;21038;-42
2021/05/26 07:23:43;;;;;;;1.15;0.93;;;;;;;25.48;50.52;100985.40;1784552;80;21047;-42
2021/05/26 07:26:09;;;;;;;1.25;1.00;;;;;;;25.43;49.92;100988.49;1784624;80;21510;-42
2021/05/26 07:28:37;;;;;;;1.05;0.93;;;;;;;25.40;50.83;100984.45;1784655;80;21358;-42
2021/05/26 07:31:03;;;;;;;0.80;0.72;;;;;;;25.52;50.89;100989.09;1784768;80;21064;-42
2021/05/26 07:33:30;;;;;;;0.88;0.88;;;;;;;25.72;49.77;100983.70;1784533;80;21083;-41
2021/05/26 07:35:57;;;;;;;0.93;0.88;;;;;;;25.87;49.24;100978.41;1784516;80;21032;-42
2021/05/26 07:38:24;;;;;;;0.68;0.68;;;;;;;25.83;48.75;100988.09;1756300;80;21506;-46
2021/05/26 07:40:51;;;;;;;0.82;0.75;;;;;;;25.65;49.23;100989.15;1761394;80;21030;-46
2021/05/26 07:43:19;;;;;;;1.85;0.72;;;;;;;25.50;50.31;100987.25;1790501;80;21864;-42
2021/05/26 07:45:46;;;;;;;0.70;0.70;;;;;;;25.46;50.06;100990.55;1790625;80;21075;-42
2021/05/26 07:48:12;;;;;;;1.30;1.20;;;;;;;25.56;50.62;100996.14;1790380;80;21055;-41
2021/05/26 07:50:38;;;;;;;1.00;0.70;;;;;;;25.60;50.36;100988.05;1790089;80;20972;-41
2021/05/26 07:53:05;;;;;;;1.10;1.00;;;;;;;25.66;49.36;100992.16;1761030;80;21039;-42
2021/05/26 07:55:31;;;;;;;0.75;0.75;;;;;;;25.80;49.71;100988.03;1790026;80;21019;-47
2021/05/26 07:57:58;;;;;;;1.67;1.27;;;;;;;26.02;49.59;100987.88;1789980;80;21110;-41
2021/05/26 08:00:25;;;;;;;1.25;0.98;;;;;;;26.25;49.20;100986.48;1789867;80;21043;-46
2021/05/26 08:02:51;;;;;;;1.35;0.98;;;;;;;26.54;48.64;100988.61;1790056;80;21047;-47
2021/05/26 08:05:19;;;;;;;1.25;1.07;;;;;;;26.81;49.16;100987.23;1790045;80;21583;-46
2021/05/26 08:07:45;;;;;;;2.10;1.75;;;;;;;26.96;48.81;100982.05;1790027;80;21024;-46
2021/05/26 08:10:13;;;;;;;0.80;0.80;;;;;;;26.98;47.40;100978.28;1761579;80;21027;-42
2021/05/26 08:12:41;;;;;;;1.85;1.10;;;;;;;26.99;46.66;100991.09;1789839;80;21069;-46
2021/05/26 08:15:09;;;;;;;1.02;0.93;;;;;;;26.93;45.93;100980.01;1790081;80;21628;-47
2021/05/26 08:17:35;;;;;;;1.27;0.82;;;;;;;26.77;45.91;100991.97;1790033;80;21027;-43
2021/05/26 08:20:05;;;;;;;1.22;0.82;;;;;;;26.63;46.71;100997.34;1790093;80;21008;-42
2021/05/26 08:22:33;;;;;;;0.72;0.72;;;;;;;26.53;46.41;100993.18;1790193;80;20992;-41
2021/05/26 08:25:00;;;;;;;1.02;0.90;;;;;;;26.39;46.70;100997.94;1789930;80;21548;-41
2021/05/26 08:27:26;;;;;;;0.85;0.80;;;;;;;26.31;47.23;100992.81;1790138;80;21509;-41
2021/05/26 08:29:54;;;;;;;1.37;1.15;;;;;;;26.20;47.08;100990.41;1790067;80;21047;-41
2021/05/26 08:32:23;;;;;;;1.27;1.17;;;;;;;25.90;47.70;100989.66;1789994;80;21079;-42
2021/05/26 08:34:49;;;;;;;1.25;1.15;;;;;;;25.77;47.71;100995.75;1789173;80;21505;-46
2021/05/26 08:37:16;;;;;;;1.15;0.70;;;;;;;25.64;47.42;100997.34;1789893;80;21020;-45
2021/05/26 08:39:43;;;;;;;2.20;1.57;;;;;;;25.49;47.96;100992.60;1789875;80;20987;-46
2021/05/26 08:42:10;;;;;;;0.85;0.78;;;;;;;25.44;48.66;100992.90;1789943;80;21397;-46
2021/05/26 08:44:37;;;;;;;1.02;0.80;;;;;;;25.52;48.88;100991.30;1789738;80;21059;-43
2021/05/26 08:47:03;;;;;;;1.47;0.70;;;;;;;25.67;48.84;100992.98;1789815;80;21039;-46
2021/05/26 08:49:31;;;;;;;2.25;0.95;;;;;;;25.81;48.85;100988.24;1789995;80;21112;-42
2021/05/26 08:52:01;;;;;;;0.82;0.70;;;;;;;25.92;49.21;100993.50;1789974;80;21050;-41
2021/05/26 08:54:28;;;;;;;1.17;0.72;;;;;;;26.12;47.66;100995.06;1789868;80;21032;-46
2021/05/26 08:56:55;;;;;;;1.55;0.90;;;;;;;26.29;47.51;100991.56;1789844;80;20987;-46
2021/05/26 08:59:23;;;;;;;1.55;0.82;;;;;;;26.34;48.22;100989.86;1789957;80;20991;-46
2021/05/26 09:01:53;;;;;;;0.80;0.70;;;;;;;26.27;47.64;100988.33;1789897;80;21047;-42
2021/05/26 09:04:31;;;;;;;4.45;1.62;;;;;;;26.23;48.56;100988.84;1758590;81;21019;-45
2021/05/26 09:07:19;;;;;;;0.82;0.80;;;;;;;26.30;48.69;100984.77;1789972;80;21560;-41
2021/05/26 09:10:00;;;;;;;1.05;0.95;;;;;;;26.48;47.81;100984.47;1789843;80;21031;-41
2021/05/26 09:12:33;;;;;;;0.57;0.57;;;;;;;26.68;46.08;100986.64;1789841;80;21087;-46
2021/05/26 09:15:15;;;;;;;1.32;1.10;;;;;;;26.90;47.19;100986.34;1789860;80;21035;-41
2021/05/26 09:17:46;;;;;;;1.72;1.10;;;;;;;27.14;46.22;100979.48;1758464;81;21058;-46
2021/05/26 09:20:25;;;;;;;1.07;0.88;;;;;;;27.32;46.11;100981.14;1789909;80;21043;-41
2021/05/26 09:23:12;;;;;;;0.40;0.40;;;;;;;27.37;44.41;100977.20;1758746;81;21059;-42
2021/05/26 09:25:50;;;;;;;0.98;0.80;;;;;;;27.32;45.04;100983.95;1789830;80;21027;-43
2021/05/26 09:28:33;;;;;;;0.88;0.88;;;;;;;27.14;44.67;100983.69;1789975;80;21083;-42
2021/05/26 09:31:07;;;;;;;1.10;0.88;;;;;;;26.97;44.29;100972.44;1758716;81;21063;-47
2021/05/26 09:33:39;;;;;;;0.88;0.68;;;;;;;26.89;44.54;100976.94;1790079;80;21512;-42
2021/05/26 09:36:21;;;;;;;0.75;0.70;;;;;;;26.87;43.49;100973.09;1789993;80;21473;-47
2021/05/26 09:39:02;;;;;;;0.95;0.78;;;;;;;26.81;43.75;100978.83;1788399;80;21211;-42
2021/05/26 09:41:34;;;;;;;0.93;0.90;;;;;;;26.85;43.81;100981.67;1752943;81;21592;-47
2021/05/26 09:44:11;;;;;;;1.00;0.90;;;;;;;27.01;43.32;100974.70;1784757;79;21557;-42
2021/05/26 09:46:40;;;;;;;1.15;0.90;;;;;;;27.22;43.49;100981.82;1785453;80;21561;-46
2021/05/26 09:49:17;;;;;;;1.10;0.98;;;;;;;27.29;42.86;100983.32;1786547;79;21529;-46
2021/05/26 09:51:58;;;;;;;0.85;0.80;;;;;;;27.25;43.21;100975.47;1786503;79;21080;-42
2021/05/26 09:54:26;;;;;;;0.85;0.70;;;;;;;27.14;41.76;100976.68;1766651;80;21036;-46
2021/05/26 09:57:07;;;;;;;0.40;0.40;;;;;;;27.08;42.20;100975.41;1786641;79;21303;-41
2021/05/26 09:59:35;;;;;;;0.98;0.90;;;;;;;26.94;43.10;100976.60;1785913;80;21608;-43
2021/05/26 10:02:06;;;;;;;0.72;0.62;;;;;;;26.86;43.27;100974.30;1786604;80;21029;-41
2021/05/26 10:04:30;;;;;;;0.68;0.65;;;;;;;26.77;44.29;100968.14;1813004;79;21714;-47
2021/05/26 10:07:14;;;;;;;0.98;0.75;;;;;;;26.81;44.19;100969.02;1784846;79;21051;-43
2021/05/26 10:09:44;;;;;;;0.82;0.80;;;;;;;26.87;44.96;100968.09;1763576;79;21015;-47
2021/05/26 10:12:21;;;;;;;1.10;0.88;;;;;;;26.82;44.33;100962.20;1770561;80;21048;-42
2021/05/26 10:14:48;;;;;;;0.78;0.78;;;;;;;26.73;45.52;100964.47;1777085;80;21040;-47
2021/05/26 10:17:19;;;;;;;1.55;0.85;;;;;;;26.70;45.75;100965.23;1769112;79;21060;-43
2021/05/26 10:19:43;;;;;;;0.80;0.72;;;;;;;26.67;45.91;100963.19;1768207;79;21060;-46
2021/05/26 10:22:09;;;;;;;0.60;0.60;;;;;;;26.58;45.05;100965.67;1723176;81;21046;-43
2021/05/26 10:24:36;;;;;;;0.72;0.72;;;;;;;26.53;43.23;100964.59;1779231;80;21449;-47
2021/05/26 10:27:04;;;;;;;0.98;0.80;;;;;;;26.56;44.85;100968.03;1756534;79;21019;-41
2021/05/26 10:29:36;;;;;;;1.10;0.70;;;;;;;26.68;45.41;100954.41;1767380;79;21060;-46
2021/05/26 10:32:18;;;;;;;1.20;0.60;;;;;;;26.94;43.91;100950.77;1767466;81;21162;-46
2021/05/26 10:34:51;;;;;;;0.95;0.85;;;;;;;27.19;42.87;100950.33;1767001;81;21072;-42
2021/05/26 10:37:30;;;;;;;0.70;0.70;;;;;;;27.21;42.19;100938.94;1767440;81;21037;-41
2021/05/26 10:39:59;;;;;;;1.47;0.93;;;;;;;27.22;42.31;100944.75;1786846;78;21550;-41
2021/05/26 10:42:33;;;;;;;1.25;1.15;;;;;;;27.29;42.92;100939.84;1796511;78;21048;-42
2021/05/26 10:45:06;;;;;;;1.12;0.70;;;;;;;27.32;42.62;100941.06;1790591;78;21024;-41
2021/05/26 10:47:41;;;;;;;1.17;0.60;;;;;;;27.23;41.31;100942.78;1752363;80;21041;-42
2021/05/26 10:50:25;;;;;;;0.65;0.65;;;;;;;27.15;41.31;100942.42;1765831;80;21055;-42
2021/05/26 10:53:01;;;;;;;0.90;0.75;;;;;;;27.05;41.24;100944.50;1736376;80;21057;-43
2021/05/26 10:55:44;;;;;;;0.75;0.70;;;;;;;26.96;41.79;100940.59;1774420;79;21123;-42
2021/05/26 10:58:34;;;;;;;1.10;0.85;;;;;;;27.04;41.49;100932.47;1770759;81;21576;-42
2021/05/26 11:01:04;;;;;;;0.65;0.62;;;;;;;27.11;41.66;100937.38;1768654;79;21340;-42
2021/05/26 11:03:34;;;;;;;0.72;0.70;;;;;;;26.92;42.55;100934.11;1767362;81;21078;-42
2021/05/26 11:06:13;;;;;;;1.15;1.02;;;;;;;26.80;42.66;100935.14;1768532;79;21015;-46
2021/05/26 11:08:51;;;;;;;0.88;0.80;;;;;;;26.78;43.62;100933.30;1767461;81;21559;-44
2021/05/26 11:11:29;;;;;;;1.52;1.12;;;;;;;26.75;43.90;100922.86;1770799;80;21093;-42
2021/05/26 11:14:13;;;;;;;1.25;0.93;;;;;;;26.83;43.41;100924.59;1750491;80;21028;-41
2021/05/26 11:16:50;;;;;;;0.62;0.62;;;;;;;27.03;42.84;100926.06;1763604;80;21620;-46
2021/05/26 11:19:26;;;;;;;0.93;0.60;;;;;;;27.50;41.85;100923.86;1780587;80;21702;-41
2021/05/26 11:22:00;;;;;;;0.82;0.72;;;;;;;28.00;42.01;100921.59;1753754;80;21684;-46
2021/05/26 11:24:33;;;;;;;1.20;0.75;;;;;;;28.18;41.54;100926.55;1777246;80;21418;-46
2021/05/26 11:27:18;;;;;;;0.60;0.60;;;;;;;28.18;41.11;100927.35;1791425;79;21056;-43
2021/05/26 11:29:46;;;;;;;1.57;0.80;;;;;;;28.14;39.68;100922.31;1791864;80;21048;-46
2021/05/26 11:32:16;;;;;;;2.17;0.95;;;;;;;28.08;39.74;100919.03;1758655;80;21019;-47
2021/05/26 11:34:45;;;;;;;0.50;0.50;;;;;;;27.95;39.29;100923.95;1750835;80;21082;-41
2021/05/26 11:37:33;;;;;;;0.80;0.53;;;;;;;27.95;38.81;100918.33;1769328;80;21019;-47
2021/05/26 11:39:59;;;;;;;0.70;0.70;;;;;;;28.19;40.12;100919.15;1758683;80;21035;-42